15°C Temp
10°C Dewpoint
72% Humidity
Temperature
10 KM/H
6 MPH
5 KTS
210°
South South
West

Wind Speed
Clear
Conditions
Pressure 1026.75 (hPa) - 30.32 (in)
Visibility 6.0 (mi) - 9.7 (km)

Current Conditions
LIRQ
Location 70(km)
Metar :LIRQ 120020Z 21005KT 170V260 CAVOK 15/10 Q1027
Fri 12th April 02:20 am

Airport
  Metar Aviation API Data Provided by https://www.checkwx.com/ PHP scripts by weather34.com ©2024